SWR493Z EDDH-LSZH
Flight info
| Callsign | SWR493Z |
|---|---|
| Flight time | 1h 18m |
| Altitude | 33000 |
| Route | IDEKO7G IDEKO N850 ROBEG DCT SWALM/N0449F340 DCT OMOGI/N0454F350 T721 LAMGO/N0400F230 T721 RILAX |
| Aircraft | A321/M-SDE3FGHIRWY/LB1 |
Departure
| Time | 2026-05-05 17:50 |
|---|---|
| Airport | Hamburg Helmut Schmidt Airport (EDDH) |
Arrival
| Time | 2026-05-05 19:08 |
|---|---|
| Airport | Zürich Airport (LSZH) |
| Time | Latitude | Longitude | Altitude | Speed | Heading |
|---|---|---|---|---|---|
| 2026-05-05 17:20 | 53.63245 | 10.00350 | 48 ft | 0 kts | 86° |
| 2026-05-05 17:21 | 53.63245 | 10.00352 | 50 ft | 0 kts | 86° |
| 2026-05-05 17:43 | 53.63244 | 10.00343 | 48 ft | 4 kts | 86° |
| 2026-05-05 17:43 | 53.63243 | 10.00305 | 48 ft | 3 kts | 87° |
| 2026-05-05 17:43 | 53.63246 | 10.00264 | 48 ft | 4 kts | 124° |
| 2026-05-05 17:43 | 53.63264 | 10.00241 | 48 ft | 3 kts | 174° |
| 2026-05-05 17:44 | 53.63267 | 10.00241 | 48 ft | 0 kts | 176° |
| 2026-05-05 17:46 | 53.63264 | 10.00239 | 48 ft | 3 kts | 185° |
| 2026-05-05 17:46 | 53.63203 | 10.00188 | 46 ft | 12 kts | 200° |
| 2026-05-05 17:46 | 53.63125 | 10.00191 | 48 ft | 11 kts | 176° |
| 2026-05-05 17:46 | 53.63058 | 10.00172 | 47 ft | 10 kts | 209° |
| 2026-05-05 17:47 | 53.63004 | 10.00115 | 48 ft | 8 kts | 212° |
| 2026-05-05 17:47 | 53.62963 | 10.00071 | 47 ft | 6 kts | 213° |
| 2026-05-05 17:47 | 53.62934 | 10.00031 | 48 ft | 5 kts | 229° |
| 2026-05-05 17:47 | 53.62920 | 9.99993 | 48 ft | 3 kts | 241° |
| 2026-05-05 17:48 | 53.62914 | 9.99975 | 48 ft | 0 kts | 242° |
| 2026-05-05 17:48 | 53.62913 | 9.99973 | 48 ft | 1 kts | 242° |
| 2026-05-05 17:48 | 53.62910 | 9.99961 | 46 ft | 1 kts | 242° |
| 2026-05-05 17:48 | 53.62901 | 9.99932 | 48 ft | 7 kts | 243° |
| 2026-05-05 17:49 | 53.62877 | 9.99848 | 45 ft | 11 kts | 244° |
| 2026-05-05 17:49 | 53.62887 | 9.99732 | 45 ft | 13 kts | 318° |
| 2026-05-05 17:49 | 53.63017 | 9.99616 | 45 ft | 41 kts | 333° |
| 2026-05-05 17:49 | 53.63484 | 9.99217 | 47 ft | 106 kts | 332° |
| 2026-05-05 17:50 | 53.64279 | 9.98527 | 54 ft | 152 kts | 333° |
| 2026-05-05 17:50 | 53.65283 | 9.97634 | 406 ft | 162 kts | 335° |
| 2026-05-05 17:50 | 53.66301 | 9.96753 | 904 ft | 167 kts | 336° |
| 2026-05-05 17:50 | 53.67356 | 9.95865 | 1472 ft | 170 kts | 337° |
| 2026-05-05 17:51 | 53.68450 | 9.94946 | 1816 ft | 185 kts | 337° |
| 2026-05-05 17:51 | 53.69667 | 9.93917 | 2013 ft | 206 kts | 336° |
| 2026-05-05 17:51 | 53.70876 | 9.92521 | 2436 ft | 220 kts | 313° |
| 2026-05-05 17:51 | 53.71453 | 9.90114 | 3031 ft | 230 kts | 276° |
| 2026-05-05 17:52 | 53.71174 | 9.87316 | 3253 ft | 256 kts | 255° |
| 2026-05-05 17:52 | 53.70610 | 9.84361 | 3746 ft | 270 kts | 252° |
| 2026-05-05 17:52 | 53.69979 | 9.81340 | 4520 ft | 274 kts | 251° |
| 2026-05-05 17:52 | 53.69341 | 9.78310 | 5358 ft | 274 kts | 251° |
| 2026-05-05 17:53 | 53.68714 | 9.75289 | 6193 ft | 272 kts | 251° |
| 2026-05-05 17:53 | 53.68105 | 9.72309 | 6972 ft | 272 kts | 252° |
| 2026-05-05 17:53 | 53.67499 | 9.69295 | 7763 ft | 271 kts | 252° |
| 2026-05-05 17:53 | 53.66898 | 9.66271 | 8503 ft | 273 kts | 252° |
| 2026-05-05 17:54 | 53.66291 | 9.63230 | 9239 ft | 275 kts | 249° |
| 2026-05-05 17:54 | 53.65335 | 9.60438 | 9911 ft | 278 kts | 230° |
| 2026-05-05 17:54 | 53.63842 | 9.58340 | 10478 ft | 286 kts | 211° |
| 2026-05-05 17:54 | 53.61890 | 9.57200 | 10617 ft | 311 kts | 190° |
| 2026-05-05 17:55 | 53.59664 | 9.56770 | 10742 ft | 332 kts | 188° |
| 2026-05-05 17:55 | 53.57300 | 9.56331 | 10907 ft | 350 kts | 188° |
| 2026-05-05 17:55 | 53.54852 | 9.55867 | 11390 ft | 357 kts | 188° |
| 2026-05-05 17:55 | 53.52373 | 9.55392 | 11979 ft | 360 kts | 188° |
| 2026-05-05 17:56 | 53.49873 | 9.54907 | 12579 ft | 364 kts | 188° |
| 2026-05-05 17:56 | 53.47344 | 9.54409 | 13186 ft | 368 kts | 188° |
| 2026-05-05 17:56 | 53.44785 | 9.53900 | 13765 ft | 371 kts | 188° |
| 2026-05-05 17:56 | 53.42215 | 9.53389 | 14273 ft | 374 kts | 188° |
| 2026-05-05 17:57 | 53.39620 | 9.52870 | 14803 ft | 377 kts | 188° |
| 2026-05-05 17:57 | 53.37007 | 9.52349 | 15336 ft | 379 kts | 188° |
| 2026-05-05 17:57 | 53.34376 | 9.51833 | 15857 ft | 382 kts | 187° |
| 2026-05-05 17:57 | 53.31728 | 9.51321 | 16367 ft | 384 kts | 187° |
| 2026-05-05 17:58 | 53.29063 | 9.50810 | 16901 ft | 386 kts | 187° |
| 2026-05-05 17:58 | 53.26384 | 9.50295 | 17411 ft | 389 kts | 187° |
| 2026-05-05 17:58 | 53.23690 | 9.49773 | 17913 ft | 391 kts | 187° |
| 2026-05-05 17:58 | 53.20972 | 9.49239 | 18369 ft | 394 kts | 187° |
| 2026-05-05 17:59 | 53.18244 | 9.48705 | 18798 ft | 396 kts | 187° |
| 2026-05-05 17:59 | 53.15509 | 9.48170 | 19224 ft | 397 kts | 188° |
| 2026-05-05 17:59 | 53.12756 | 9.47632 | 19646 ft | 399 kts | 188° |
| 2026-05-05 17:59 | 53.10020 | 9.47098 | 20080 ft | 401 kts | 188° |
| 2026-05-05 18:00 | 53.07248 | 9.46563 | 20506 ft | 403 kts | 188° |
| 2026-05-05 18:00 | 53.04458 | 9.46028 | 20939 ft | 404 kts | 188° |
| 2026-05-05 18:00 | 53.01658 | 9.45490 | 21353 ft | 406 kts | 188° |
| 2026-05-05 18:00 | 52.98844 | 9.44948 | 21793 ft | 408 kts | 188° |
| 2026-05-05 18:01 | 52.96021 | 9.44378 | 22220 ft | 409 kts | 189° |
| 2026-05-05 18:01 | 52.93188 | 9.43776 | 22625 ft | 412 kts | 189° |
| 2026-05-05 18:01 | 52.90342 | 9.43155 | 23039 ft | 413 kts | 189° |
| 2026-05-05 18:01 | 52.87490 | 9.42524 | 23432 ft | 415 kts | 189° |
| 2026-05-05 18:02 | 52.84622 | 9.41894 | 23805 ft | 416 kts | 189° |
| 2026-05-05 18:02 | 52.81739 | 9.41270 | 24163 ft | 417 kts | 189° |
| 2026-05-05 18:02 | 52.78856 | 9.40656 | 24502 ft | 418 kts | 189° |
| 2026-05-05 18:02 | 52.75969 | 9.40048 | 24830 ft | 420 kts | 189° |
| 2026-05-05 18:03 | 52.73068 | 9.39437 | 25149 ft | 421 kts | 189° |
| 2026-05-05 18:03 | 52.70154 | 9.38817 | 25461 ft | 423 kts | 189° |
| 2026-05-05 18:03 | 52.67231 | 9.38199 | 25779 ft | 424 kts | 189° |
| 2026-05-05 18:03 | 52.64299 | 9.37579 | 26090 ft | 426 kts | 189° |
| 2026-05-05 18:04 | 52.61357 | 9.36949 | 26385 ft | 427 kts | 189° |
| 2026-05-05 18:04 | 52.58413 | 9.36242 | 26714 ft | 428 kts | 191° |
| 2026-05-05 18:04 | 52.55466 | 9.35463 | 27057 ft | 430 kts | 191° |
| 2026-05-05 18:04 | 52.52509 | 9.34644 | 27395 ft | 432 kts | 191° |
| 2026-05-05 18:05 | 52.49541 | 9.33820 | 27702 ft | 433 kts | 191° |
| 2026-05-05 18:05 | 52.46562 | 9.33006 | 28015 ft | 435 kts | 191° |
| 2026-05-05 18:05 | 52.43571 | 9.32209 | 28302 ft | 436 kts | 191° |
| 2026-05-05 18:05 | 52.40570 | 9.31426 | 28624 ft | 436 kts | 191° |
| 2026-05-05 18:06 | 52.37578 | 9.30656 | 29025 ft | 434 kts | 191° |
| 2026-05-05 18:06 | 52.35602 | 9.30152 | 29312 ft | 433 kts | 191° |
| 2026-05-05 18:06 | 52.31636 | 9.29131 | 29848 ft | 430 kts | 191° |
| 2026-05-05 18:06 | 52.28690 | 9.28365 | 30184 ft | 429 kts | 191° |
| 2026-05-05 18:07 | 52.25748 | 9.27595 | 30528 ft | 427 kts | 191° |
| 2026-05-05 18:07 | 52.22801 | 9.26953 | 30880 ft | 426 kts | 185° |
| 2026-05-05 18:07 | 52.19838 | 9.26787 | 31233 ft | 425 kts | 184° |
| 2026-05-05 18:07 | 52.16893 | 9.26656 | 31603 ft | 423 kts | 184° |
| 2026-05-05 18:08 | 52.13956 | 9.26532 | 31977 ft | 421 kts | 183° |
| 2026-05-05 18:08 | 52.11031 | 9.26414 | 32369 ft | 419 kts | 183° |
| 2026-05-05 18:08 | 52.08124 | 9.26297 | 32731 ft | 417 kts | 183° |
| 2026-05-05 18:08 | 52.05224 | 9.26183 | 32834 ft | 416 kts | 183° |
| 2026-05-05 18:09 | 52.02335 | 9.26061 | 32827 ft | 415 kts | 183° |
| 2026-05-05 18:09 | 51.96613 | 9.25805 | 32825 ft | 414 kts | 183° |
| 2026-05-05 18:10 | 51.90821 | 9.25553 | 32813 ft | 414 kts | 183° |
| 2026-05-05 18:10 | 51.85107 | 9.25311 | 32823 ft | 414 kts | 183° |
| 2026-05-05 18:11 | 51.79353 | 9.25055 | 32816 ft | 414 kts | 183° |
| 2026-05-05 18:11 | 51.73593 | 9.24812 | 32822 ft | 414 kts | 183° |
| 2026-05-05 18:12 | 51.67833 | 9.24575 | 32808 ft | 413 kts | 182° |
| 2026-05-05 18:12 | 51.62079 | 9.24331 | 32811 ft | 413 kts | 182° |
| 2026-05-05 18:13 | 51.56344 | 9.23967 | 32816 ft | 413 kts | 185° |
| 2026-05-05 18:13 | 51.50627 | 9.22967 | 32812 ft | 413 kts | 187° |
| 2026-05-05 18:14 | 51.44939 | 9.21753 | 32804 ft | 413 kts | 187° |
| 2026-05-05 18:14 | 51.42085 | 9.21177 | 33073 ft | 413 kts | 186° |
| 2026-05-05 18:14 | 51.39231 | 9.20639 | 33405 ft | 412 kts | 186° |
| 2026-05-05 18:14 | 51.36383 | 9.20129 | 33746 ft | 411 kts | 186° |
| 2026-05-05 18:15 | 51.33544 | 9.19630 | 34031 ft | 410 kts | 186° |
| 2026-05-05 18:15 | 51.30708 | 9.19137 | 34274 ft | 410 kts | 186° |
| 2026-05-05 18:15 | 51.27871 | 9.18641 | 34499 ft | 410 kts | 186° |
| 2026-05-05 18:15 | 51.25032 | 9.18142 | 34709 ft | 411 kts | 186° |
| 2026-05-05 18:16 | 51.22182 | 9.17635 | 34796 ft | 411 kts | 186° |
| 2026-05-05 18:16 | 51.16502 | 9.16610 | 34808 ft | 411 kts | 186° |
| 2026-05-05 18:17 | 51.10854 | 9.15604 | 34811 ft | 411 kts | 186° |
| 2026-05-05 18:17 | 51.05157 | 9.14591 | 34808 ft | 414 kts | 186° |
| 2026-05-05 18:18 | 50.99360 | 9.13564 | 34810 ft | 422 kts | 186° |
| 2026-05-05 18:18 | 50.93528 | 9.12538 | 34803 ft | 423 kts | 185° |
| 2026-05-05 18:19 | 50.87666 | 9.11508 | 34791 ft | 425 kts | 185° |
| 2026-05-05 18:19 | 50.82769 | 9.10646 | 34785 ft | 426 kts | 185° |
| 2026-05-05 18:20 | 50.76859 | 9.09611 | 34789 ft | 428 kts | 185° |
| 2026-05-05 18:20 | 50.70933 | 9.08582 | 34793 ft | 429 kts | 185° |
| 2026-05-05 18:21 | 50.64997 | 9.07535 | 34801 ft | 429 kts | 185° |
| 2026-05-05 18:21 | 50.59063 | 9.06502 | 34802 ft | 429 kts | 185° |
| 2026-05-05 18:22 | 50.53145 | 9.05473 | 34796 ft | 427 kts | 185° |
| 2026-05-05 18:22 | 50.47223 | 9.04468 | 34788 ft | 429 kts | 185° |
| 2026-05-05 18:23 | 50.41312 | 9.03459 | 34810 ft | 427 kts | 185° |
| 2026-05-05 18:23 | 50.35385 | 9.02423 | 34830 ft | 430 kts | 186° |
| 2026-05-05 18:24 | 50.29445 | 9.01379 | 34845 ft | 430 kts | 185° |
| 2026-05-05 18:24 | 50.23490 | 9.00377 | 34847 ft | 430 kts | 185° |
| 2026-05-05 18:25 | 50.17538 | 8.99361 | 34839 ft | 430 kts | 185° |
| 2026-05-05 18:25 | 50.11591 | 8.98347 | 34835 ft | 429 kts | 185° |
| 2026-05-05 18:26 | 50.05661 | 8.97331 | 34835 ft | 429 kts | 185° |
| 2026-05-05 18:26 | 49.99718 | 8.96323 | 34821 ft | 430 kts | 185° |
| 2026-05-05 18:27 | 49.93754 | 8.95316 | 34825 ft | 431 kts | 185° |
| 2026-05-05 18:27 | 49.87797 | 8.94306 | 34833 ft | 431 kts | 185° |
| 2026-05-05 18:28 | 49.78878 | 8.92813 | 34834 ft | 432 kts | 185° |
| 2026-05-05 18:28 | 49.72862 | 8.91812 | 34828 ft | 433 kts | 185° |
| 2026-05-05 18:29 | 49.66910 | 8.90810 | 34827 ft | 433 kts | 185° |
| 2026-05-05 18:29 | 49.60867 | 8.89808 | 34832 ft | 434 kts | 185° |
| 2026-05-05 18:30 | 49.54894 | 8.88818 | 34830 ft | 435 kts | 185° |
| 2026-05-05 18:30 | 49.48832 | 8.87794 | 34833 ft | 435 kts | 185° |
| 2026-05-05 18:31 | 49.42853 | 8.86798 | 34838 ft | 435 kts | 185° |
| 2026-05-05 18:31 | 49.36828 | 8.85803 | 34838 ft | 435 kts | 185° |
| 2026-05-05 18:32 | 49.30787 | 8.84809 | 34411 ft | 437 kts | 185° |
| 2026-05-05 18:32 | 49.27763 | 8.84311 | 33939 ft | 437 kts | 185° |
| 2026-05-05 18:32 | 49.24742 | 8.83811 | 33405 ft | 437 kts | 185° |
| 2026-05-05 18:33 | 49.21715 | 8.83308 | 32861 ft | 438 kts | 185° |
| 2026-05-05 18:33 | 49.18677 | 8.82811 | 32333 ft | 440 kts | 184° |
| 2026-05-05 18:33 | 49.15628 | 8.82317 | 31809 ft | 441 kts | 185° |
| 2026-05-05 18:33 | 49.12567 | 8.81820 | 31294 ft | 443 kts | 185° |
| 2026-05-05 18:34 | 49.09494 | 8.81320 | 30787 ft | 445 kts | 185° |
| 2026-05-05 18:34 | 49.06409 | 8.80819 | 30290 ft | 447 kts | 185° |
| 2026-05-05 18:34 | 49.03303 | 8.80314 | 29783 ft | 449 kts | 185° |
| 2026-05-05 18:34 | 49.00199 | 8.79813 | 29336 ft | 451 kts | 185° |
| 2026-05-05 18:35 | 48.97074 | 8.79309 | 28767 ft | 452 kts | 185° |
| 2026-05-05 18:35 | 48.93935 | 8.78802 | 28230 ft | 453 kts | 186° |
| 2026-05-05 18:35 | 48.90801 | 8.78293 | 27684 ft | 454 kts | 186° |
| 2026-05-05 18:35 | 48.87655 | 8.77759 | 27149 ft | 455 kts | 187° |
| 2026-05-05 18:36 | 48.84511 | 8.77065 | 26616 ft | 455 kts | 189° |
| 2026-05-05 18:36 | 48.81405 | 8.76232 | 26112 ft | 453 kts | 190° |
| 2026-05-05 18:36 | 48.78323 | 8.75324 | 25608 ft | 449 kts | 191° |
| 2026-05-05 18:36 | 48.75265 | 8.74409 | 25121 ft | 446 kts | 191° |
| 2026-05-05 18:37 | 48.72226 | 8.73522 | 24634 ft | 442 kts | 190° |
| 2026-05-05 18:37 | 48.69210 | 8.72677 | 24156 ft | 439 kts | 190° |
| 2026-05-05 18:37 | 48.66212 | 8.71869 | 23684 ft | 436 kts | 189° |
| 2026-05-05 18:37 | 48.63226 | 8.71089 | 23173 ft | 434 kts | 189° |
| 2026-05-05 18:38 | 48.60260 | 8.70329 | 22625 ft | 429 kts | 189° |
| 2026-05-05 18:38 | 48.57333 | 8.69580 | 22130 ft | 423 kts | 189° |
| 2026-05-05 18:38 | 48.54446 | 8.68845 | 21744 ft | 421 kts | 191° |
| 2026-05-05 18:38 | 48.51625 | 8.68099 | 21360 ft | 415 kts | 190° |
| 2026-05-05 18:39 | 48.48749 | 8.67321 | 20973 ft | 415 kts | 191° |
| 2026-05-05 18:39 | 48.45945 | 8.66557 | 20595 ft | 414 kts | 191° |
| 2026-05-05 18:39 | 48.43125 | 8.65794 | 20204 ft | 409 kts | 191° |
| 2026-05-05 18:39 | 48.40373 | 8.65079 | 19828 ft | 393 kts | 191° |
| 2026-05-05 18:40 | 48.37744 | 8.64387 | 19458 ft | 374 kts | 191° |
| 2026-05-05 18:40 | 48.35262 | 8.63687 | 19086 ft | 351 kts | 192° |
| 2026-05-05 18:40 | 48.32947 | 8.62986 | 18719 ft | 329 kts | 193° |
| 2026-05-05 18:40 | 48.30757 | 8.62310 | 18373 ft | 318 kts | 193° |
| 2026-05-05 18:41 | 48.28602 | 8.61645 | 18087 ft | 314 kts | 194° |
| 2026-05-05 18:41 | 48.26475 | 8.60989 | 17880 ft | 311 kts | 194° |
| 2026-05-05 18:41 | 48.24359 | 8.60339 | 17859 ft | 310 kts | 194° |
| 2026-05-05 18:41 | 48.22242 | 8.59694 | 17860 ft | 311 kts | 193° |
| 2026-05-05 18:42 | 48.20118 | 8.59055 | 17861 ft | 310 kts | 193° |
| 2026-05-05 18:42 | 48.18000 | 8.58424 | 17858 ft | 311 kts | 193° |
| 2026-05-05 18:42 | 48.15884 | 8.57788 | 17712 ft | 309 kts | 193° |
| 2026-05-05 18:42 | 48.13782 | 8.57154 | 17261 ft | 308 kts | 193° |
| 2026-05-05 18:43 | 48.11684 | 8.56522 | 16867 ft | 306 kts | 193° |
| 2026-05-05 18:43 | 48.09606 | 8.55902 | 16507 ft | 303 kts | 194° |
| 2026-05-05 18:43 | 48.07547 | 8.55291 | 16134 ft | 300 kts | 194° |
| 2026-05-05 18:43 | 48.05503 | 8.54683 | 15759 ft | 298 kts | 194° |
| 2026-05-05 18:44 | 48.03473 | 8.54081 | 15388 ft | 297 kts | 194° |
| 2026-05-05 18:44 | 48.01454 | 8.53484 | 15022 ft | 295 kts | 194° |
| 2026-05-05 18:44 | 47.99474 | 8.52899 | 14670 ft | 293 kts | 194° |
| 2026-05-05 18:44 | 47.97461 | 8.52305 | 14406 ft | 288 kts | 194° |
| 2026-05-05 18:45 | 47.95552 | 8.51743 | 14286 ft | 278 kts | 194° |
| 2026-05-05 18:45 | 47.93701 | 8.51125 | 14158 ft | 266 kts | 204° |
| 2026-05-05 18:45 | 47.92173 | 8.49741 | 13963 ft | 254 kts | 226° |
| 2026-05-05 18:45 | 47.91180 | 8.47618 | 13660 ft | 250 kts | 247° |
| 2026-05-05 18:46 | 47.90829 | 8.45087 | 13267 ft | 252 kts | 268° |
| 2026-05-05 18:46 | 47.91179 | 8.42521 | 12914 ft | 256 kts | 291° |
| 2026-05-05 18:46 | 47.91896 | 8.40068 | 12888 ft | 260 kts | 278° |
| 2026-05-05 18:46 | 47.91798 | 8.37447 | 12875 ft | 255 kts | 245° |
| 2026-05-05 18:47 | 47.90744 | 8.35368 | 12883 ft | 254 kts | 220° |
| 2026-05-05 18:47 | 47.89212 | 8.34041 | 12888 ft | 258 kts | 201° |
| 2026-05-05 18:47 | 47.87430 | 8.33642 | 12879 ft | 266 kts | 180° |
| 2026-05-05 18:47 | 47.85637 | 8.34422 | 12882 ft | 275 kts | 153° |
| 2026-05-05 18:48 | 47.84240 | 8.36409 | 12874 ft | 286 kts | 127° |
| 2026-05-05 18:48 | 47.83212 | 8.38971 | 12892 ft | 289 kts | 125° |
| 2026-05-05 18:48 | 47.82198 | 8.41561 | 12886 ft | 290 kts | 124° |
| 2026-05-05 18:48 | 47.81184 | 8.44153 | 12886 ft | 289 kts | 125° |
| 2026-05-05 18:49 | 47.80168 | 8.46741 | 12878 ft | 290 kts | 125° |
| 2026-05-05 18:49 | 47.79148 | 8.49330 | 12887 ft | 291 kts | 125° |
| 2026-05-05 18:49 | 47.78127 | 8.51918 | 12883 ft | 290 kts | 125° |
| 2026-05-05 18:49 | 47.77103 | 8.54505 | 12894 ft | 290 kts | 125° |
| 2026-05-05 18:50 | 47.76078 | 8.57090 | 12883 ft | 291 kts | 125° |
| 2026-05-05 18:50 | 47.75052 | 8.59673 | 12879 ft | 291 kts | 125° |
| 2026-05-05 18:50 | 47.74021 | 8.62266 | 12890 ft | 291 kts | 124° |
| 2026-05-05 18:50 | 47.72988 | 8.64850 | 12881 ft | 291 kts | 125° |
| 2026-05-05 18:51 | 47.71960 | 8.67436 | 12888 ft | 291 kts | 125° |
| 2026-05-05 18:51 | 47.70934 | 8.70025 | 12898 ft | 290 kts | 125° |
| 2026-05-05 18:51 | 47.69906 | 8.72602 | 12887 ft | 289 kts | 125° |
| 2026-05-05 18:51 | 47.68904 | 8.75105 | 12709 ft | 283 kts | 125° |
| 2026-05-05 18:52 | 47.67888 | 8.77644 | 12366 ft | 282 kts | 126° |
| 2026-05-05 18:52 | 47.66890 | 8.80132 | 12003 ft | 280 kts | 126° |
| 2026-05-05 18:52 | 47.65894 | 8.82606 | 11638 ft | 279 kts | 126° |
| 2026-05-05 18:52 | 47.64904 | 8.85070 | 11295 ft | 277 kts | 125° |
| 2026-05-05 18:53 | 47.63924 | 8.87517 | 10950 ft | 275 kts | 124° |
| 2026-05-05 18:53 | 47.62951 | 8.89946 | 10620 ft | 273 kts | 125° |
| 2026-05-05 18:53 | 47.61984 | 8.92357 | 10309 ft | 270 kts | 125° |
| 2026-05-05 18:53 | 47.61036 | 8.94718 | 9971 ft | 269 kts | 125° |
| 2026-05-05 18:54 | 47.60081 | 8.97090 | 9645 ft | 268 kts | 125° |
| 2026-05-05 18:54 | 47.59128 | 8.99449 | 9290 ft | 266 kts | 125° |
| 2026-05-05 18:54 | 47.58177 | 9.01804 | 8938 ft | 264 kts | 125° |
| 2026-05-05 18:54 | 47.57364 | 9.04212 | 8883 ft | 266 kts | 107° |
| 2026-05-05 18:55 | 47.57189 | 9.06967 | 8885 ft | 271 kts | 96° |
| 2026-05-05 18:55 | 47.56999 | 9.09766 | 8889 ft | 269 kts | 101° |
| 2026-05-05 18:55 | 47.56713 | 9.12508 | 8885 ft | 270 kts | 103° |
| 2026-05-05 18:55 | 47.56403 | 9.15252 | 8891 ft | 271 kts | 103° |
| 2026-05-05 18:56 | 47.56154 | 9.18010 | 8887 ft | 272 kts | 91° |
| 2026-05-05 18:56 | 47.56581 | 9.20695 | 8885 ft | 275 kts | 61° |
| 2026-05-05 18:56 | 47.57844 | 9.22815 | 8880 ft | 272 kts | 30° |
| 2026-05-05 18:56 | 47.59564 | 9.23788 | 8882 ft | 268 kts | 2° |
| 2026-05-05 18:57 | 47.61397 | 9.23537 | 8878 ft | 259 kts | 335° |
| 2026-05-05 18:57 | 47.62892 | 9.22225 | 8891 ft | 249 kts | 310° |
| 2026-05-05 18:57 | 47.63856 | 9.20152 | 8886 ft | 244 kts | 287° |
| 2026-05-05 18:57 | 47.64165 | 9.17733 | 8892 ft | 238 kts | 264° |
| 2026-05-05 18:58 | 47.63801 | 9.15354 | 8879 ft | 237 kts | 243° |
| 2026-05-05 18:58 | 47.62836 | 9.13400 | 8892 ft | 237 kts | 221° |
| 2026-05-05 18:58 | 47.61460 | 9.12030 | 8882 ft | 240 kts | 211° |
| 2026-05-05 18:58 | 47.59992 | 9.10840 | 8887 ft | 240 kts | 210° |
| 2026-05-05 18:59 | 47.58590 | 9.09521 | 8880 ft | 238 kts | 224° |
| 2026-05-05 18:59 | 47.57621 | 9.07571 | 8885 ft | 237 kts | 246° |
| 2026-05-05 18:59 | 47.57283 | 9.05178 | 8904 ft | 241 kts | 269° |
| 2026-05-05 18:59 | 47.57497 | 9.02712 | 8881 ft | 245 kts | 288° |
| 2026-05-05 19:00 | 47.58479 | 9.00640 | 8895 ft | 253 kts | 318° |
| 2026-05-05 19:00 | 47.59960 | 8.99178 | 8887 ft | 256 kts | 318° |
| 2026-05-05 19:00 | 47.61254 | 8.97410 | 8893 ft | 252 kts | 304° |
| 2026-05-05 19:00 | 47.61960 | 8.95160 | 8894 ft | 242 kts | 275° |
| 2026-05-05 19:01 | 47.61812 | 8.92755 | 8668 ft | 232 kts | 245° |
| 2026-05-05 19:01 | 47.60845 | 8.90913 | 8409 ft | 228 kts | 214° |
| 2026-05-05 19:01 | 47.59350 | 8.90134 | 8156 ft | 233 kts | 189° |
| 2026-05-05 19:01 | 47.57717 | 8.90007 | 7901 ft | 236 kts | 185° |
| 2026-05-05 19:02 | 47.56075 | 8.89988 | 7651 ft | 236 kts | 184° |
| 2026-05-05 19:02 | 47.54439 | 8.89989 | 7401 ft | 235 kts | 184° |
| 2026-05-05 19:02 | 47.52804 | 8.89994 | 7153 ft | 234 kts | 184° |
| 2026-05-05 19:02 | 47.51173 | 8.89998 | 6911 ft | 234 kts | 184° |
| 2026-05-05 19:03 | 47.49542 | 8.90007 | 6664 ft | 234 kts | 184° |
| 2026-05-05 19:03 | 47.47919 | 8.90023 | 6454 ft | 233 kts | 184° |
| 2026-05-05 19:03 | 47.46308 | 8.89919 | 6190 ft | 229 kts | 198° |
| 2026-05-05 19:03 | 47.44948 | 8.88841 | 5934 ft | 224 kts | 221° |
| 2026-05-05 19:04 | 47.43751 | 8.87340 | 5720 ft | 226 kts | 231° |
| 2026-05-05 19:04 | 47.43222 | 8.85260 | 5518 ft | 217 kts | 271° |
| 2026-05-05 19:04 | 47.43638 | 8.83164 | 5258 ft | 212 kts | 290° |
| 2026-05-05 19:04 | 47.43955 | 8.81088 | 4978 ft | 204 kts | 275° |
| 2026-05-05 19:05 | 47.44085 | 8.79019 | 4674 ft | 201 kts | 274° |
| 2026-05-05 19:05 | 47.44223 | 8.76974 | 4376 ft | 200 kts | 275° |
| 2026-05-05 19:05 | 47.44367 | 8.74965 | 4076 ft | 192 kts | 274° |
| 2026-05-05 19:05 | 47.44506 | 8.73050 | 3802 ft | 184 kts | 274° |
| 2026-05-05 19:06 | 47.44595 | 8.71823 | 3613 ft | 180 kts | 274° |
| 2026-05-05 19:06 | 47.44771 | 8.69387 | 3282 ft | 177 kts | 274° |
| 2026-05-05 19:06 | 47.44858 | 8.68188 | 3107 ft | 177 kts | 274° |
| 2026-05-05 19:06 | 47.44990 | 8.66376 | 2852 ft | 178 kts | 274° |
| 2026-05-05 19:07 | 47.45161 | 8.64009 | 2512 ft | 168 kts | 274° |
| 2026-05-05 19:07 | 47.45243 | 8.62869 | 2334 ft | 162 kts | 274° |
| 2026-05-05 19:07 | 47.45394 | 8.60769 | 1997 ft | 151 kts | 274° |
| 2026-05-05 19:07 | 47.45508 | 8.59232 | 1778 ft | 150 kts | 274° |
| 2026-05-05 19:08 | 47.45622 | 8.57692 | 1549 ft | 152 kts | 273° |
| 2026-05-05 19:08 | 47.45692 | 8.56666 | 1436 ft | 149 kts | 273° |
| 2026-05-05 19:08 | 47.45773 | 8.55412 | 1400 ft | 82 kts | 277° |
| 2026-05-05 19:08 | 47.45801 | 8.54964 | 1391 ft | 23 kts | 260° |
| 2026-05-05 19:09 | 47.45792 | 8.54925 | 1391 ft | 6 kts | 244° |
| 2026-05-05 19:09 | 47.45701 | 8.54888 | 1399 ft | 22 kts | 152° |
| 2026-05-05 19:09 | 47.45548 | 8.54987 | 1397 ft | 23 kts | 154° |
| 2026-05-05 19:09 | 47.45439 | 8.55129 | 1402 ft | 20 kts | 122° |
| 2026-05-05 19:10 | 47.45387 | 8.55270 | 1406 ft | 11 kts | 117° |
| 2026-05-05 19:10 | 47.45380 | 8.55289 | 1399 ft | 0 kts | 118° |
| 2026-05-05 19:11 | 47.45375 | 8.55304 | 1404 ft | 6 kts | 118° |
| 2026-05-05 19:12 | 47.45371 | 8.55316 | 1399 ft | 0 kts | 113° |
| 2026-05-05 19:12 | 47.45373 | 8.55326 | 1399 ft | 5 kts | 81° |
| 2026-05-05 19:12 | 47.45407 | 8.55366 | 1400 ft | 5 kts | 22° |
| 2026-05-05 19:12 | 47.45430 | 8.55384 | 1401 ft | 3 kts | 28° |
| 2026-05-05 19:13 | 47.45453 | 8.55402 | 1402 ft | 9 kts | 27° |
| 2026-05-05 19:13 | 47.45512 | 8.55451 | 1408 ft | 8 kts | 39° |
| 2026-05-05 19:13 | 47.45524 | 8.55529 | 1409 ft | 7 kts | 93° |
| 2026-05-05 19:13 | 47.45523 | 8.55558 | 1406 ft | 0 kts | 95° |
| 2026-05-05 19:14 | 47.45522 | 8.55567 | 1406 ft | 6 kts | 95° |
| 2026-05-05 19:14 | 47.45521 | 8.55586 | 1407 ft | 0 kts | 95° |
| 2026-05-05 19:15 | 47.45520 | 8.55593 | 1414 ft | 1 kts | 95° |
| 2026-05-05 19:15 | 47.45520 | 8.55595 | 1407 ft | 0 kts | 95° |
| 2026-05-05 19:15 | 47.45519 | 8.55608 | 1407 ft | 6 kts | 95° |
| 2026-05-05 19:15 | 47.45496 | 8.55644 | 1407 ft | 5 kts | 186° |
| 2026-05-05 19:16 | 47.45443 | 8.55636 | 1407 ft | 4 kts | 186° |
| 2026-05-05 19:16 | 47.45436 | 8.55635 | 1407 ft | 0 kts | 186° |